createdAt,value
2023-03-24T00:01:21.482Z,62.23
2023-03-24T00:03:49.180Z,62.38
2023-03-24T00:06:18.970Z,62.59
2023-03-24T00:08:48.420Z,63.89
2023-03-24T00:11:18.604Z,65.52
2023-03-24T00:13:47.316Z,64.60
2023-03-24T00:16:19.726Z,64.59
2023-03-24T00:18:53.472Z,65.73
2023-03-24T00:21:26.394Z,67.37
2023-03-24T00:23:56.097Z,66.23
2023-03-24T00:26:25.251Z,66.60
2023-03-24T00:28:54.197Z,66.13
2023-03-24T00:31:22.235Z,66.35
2023-03-24T00:33:51.384Z,65.97
2023-03-24T00:36:22.247Z,66.01
2023-03-24T00:38:50.299Z,67.75
2023-03-24T00:41:20.173Z,68.58
2023-03-24T00:43:49.768Z,68.38
2023-03-24T00:46:37.703Z,68.13
2023-03-24T00:49:07.694Z,67.81
2023-03-24T00:51:39.529Z,68.61
2023-03-24T00:54:10.833Z,67.91
2023-03-24T00:56:40.687Z,67.27
2023-03-24T00:59:10.678Z,66.40
2023-03-24T01:01:41.255Z,66.86
2023-03-24T01:04:10.453Z,67.62
2023-03-24T01:06:39.490Z,65.84
2023-03-24T01:09:07.793Z,67.10
2023-03-24T01:11:41.422Z,66.71
2023-03-24T01:14:11.521Z,66.55
2023-03-24T01:16:39.530Z,69.12
2023-03-24T01:19:09.478Z,68.36
2023-03-24T01:21:42.320Z,68.29
2023-03-24T01:24:10.529Z,67.67
2023-03-24T01:26:38.083Z,66.77
2023-03-24T01:29:06.180Z,66.93
2023-03-24T01:31:33.827Z,67.17
2023-03-24T01:34:01.563Z,66.94
2023-03-24T01:36:28.944Z,69.16
2023-03-24T01:38:58.574Z,68.59
2023-03-24T01:41:31.730Z,69.43
2023-03-24T01:44:00.151Z,69.78
2023-03-24T01:46:29.812Z,70.41
2023-03-24T01:49:08.493Z,70.43
2023-03-24T01:51:44.409Z,70.14
2023-03-24T01:54:28.621Z,69.27
2023-03-24T01:57:13.792Z,69.39
2023-03-24T01:59:50.145Z,68.52
2023-03-24T02:02:36.930Z,69.96
2023-03-24T02:05:09.176Z,70.66
2023-03-24T02:08:07.297Z,71.73
2023-03-24T02:10:36.891Z,73.85
2023-03-24T02:13:04.903Z,72.47
2023-03-24T02:15:36.359Z,72.07
2023-03-24T02:18:25.990Z,72.63
2023-03-24T02:21:33.075Z,74.54
2023-03-24T02:24:26.271Z,74.18
2023-03-24T02:27:30.200Z,75.40
2023-03-24T02:30:26.980Z,74.54
2023-03-24T02:33:31.796Z,76.48
2023-03-24T02:36:48.986Z,76.68
2023-03-24T02:40:08.178Z,74.37
2023-03-24T02:42:53.168Z,74.48
2023-03-24T02:45:54.904Z,76.65
2023-03-24T02:48:30.903Z,76.22
2023-03-24T02:51:17.556Z,75.31
2023-03-24T02:54:15.739Z,76.13
2023-03-24T02:57:39.338Z,75.99
2023-03-24T03:00:47.274Z,74.58
2023-03-24T03:03:54.916Z,74.82
2023-03-24T03:06:34.778Z,76.53
2023-03-24T03:09:10.004Z,76.14
2023-03-24T03:11:40.040Z,76.82
2023-03-24T03:14:23.028Z,77.40
2023-03-24T03:17:18.933Z,78.26
2023-03-24T03:19:56.411Z,76.79
2023-03-24T03:22:29.225Z,77.08
2023-03-24T03:25:01.393Z,79.12
2023-03-24T03:27:38.957Z,79.63
2023-03-24T03:30:26.334Z,77.23
2023-03-24T03:33:02.639Z,77.54
2023-03-24T03:35:38.487Z,78.83
2023-03-24T03:38:08.833Z,77.37
2023-03-24T03:40:51.792Z,76.33
2023-03-24T03:43:24.018Z,78.15
2023-03-24T03:45:51.777Z,77.19
2023-03-24T03:48:26.494Z,76.29
2023-03-24T03:51:10.159Z,75.66
2023-03-24T03:54:01.265Z,76.12
2023-03-24T03:56:34.416Z,78.16
2023-03-24T03:59:37.508Z,78.66
2023-03-24T04:02:53.408Z,76.49
2023-03-24T04:05:28.315Z,76.79
2023-03-24T04:08:28.718Z,76.85
2023-03-24T04:11:31.677Z,78.17
2023-03-24T04:14:33.400Z,75.83
2023-03-24T04:17:58.268Z,75.71
2023-03-24T04:21:18.559Z,75.79
2023-03-24T04:24:13.782Z,74.57
2023-03-24T04:27:01.778Z,73.64
2023-03-24T04:29:46.699Z,73.50
2023-03-24T04:32:25.804Z,73.22
2023-03-24T04:35:03.472Z,72.90
2023-03-24T04:37:51.169Z,72.20
2023-03-24T04:40:24.750Z,71.18
2023-03-24T04:42:55.794Z,70.84
2023-03-24T04:45:28.598Z,69.57
2023-03-24T04:48:22.034Z,69.52
2023-03-24T04:51:11.213Z,70.33
2023-03-24T04:53:57.154Z,70.07
2023-03-24T04:56:39.910Z,71.62
2023-03-24T04:59:34.252Z,70.85
2023-03-24T05:02:03.875Z,73.12
2023-03-24T05:04:57.308Z,71.46
2023-03-24T05:07:29.029Z,69.43
2023-03-24T05:09:59.602Z,70.75
2023-03-24T05:12:27.318Z,70.08
2023-03-24T05:15:18.125Z,72.07
2023-03-24T05:17:47.685Z,72.05
2023-03-24T05:20:15.720Z,71.33
2023-03-24T05:22:47.236Z,71.80
2023-03-24T05:25:14.607Z,70.42
2023-03-24T05:27:42.178Z,70.34
2023-03-24T05:30:20.620Z,70.16
2023-03-24T05:32:50.226Z,69.45
2023-03-24T05:35:17.616Z,70.78
2023-03-24T05:37:45.037Z,71.09
2023-03-24T05:40:12.868Z,70.58
2023-03-24T05:43:03.964Z,70.56
2023-03-24T05:45:35.613Z,69.46
2023-03-24T05:48:04.817Z,69.88
2023-03-24T05:50:53.294Z,70.27
2023-03-24T05:53:21.607Z,67.52
2023-03-24T05:56:12.138Z,68.20
2023-03-24T05:59:00.561Z,68.17
2023-03-24T06:01:50.707Z,67.36
2023-03-24T06:04:24.868Z,70.30
2023-03-24T06:06:59.497Z,70.46
2023-03-24T06:09:37.640Z,69.39
2023-03-24T06:12:06.752Z,67.91
2023-03-24T06:14:36.881Z,67.94
2023-03-24T06:17:14.776Z,67.83
2023-03-24T06:19:50.155Z,71.83
2023-03-24T06:22:38.684Z,74.97
2023-03-24T06:25:13.860Z,69.43
2023-03-24T06:27:48.765Z,75.04
2023-03-24T06:30:21.075Z,76.64
2023-03-24T06:32:48.836Z,73.12
2023-03-24T06:35:18.179Z,72.65
2023-03-24T06:38:02.223Z,72.87
2023-03-24T06:40:29.559Z,73.68
2023-03-24T06:42:58.669Z,74.04
2023-03-24T06:45:26.362Z,73.98
2023-03-24T06:47:56.234Z,74.56
2023-03-24T06:50:33.076Z,73.88
2023-03-24T06:53:02.537Z,72.68
2023-03-24T06:55:32.491Z,70.98
2023-03-24T06:57:59.836Z,70.42
2023-03-24T07:00:36.996Z,70.10
2023-03-24T07:03:18.783Z,69.86
2023-03-24T07:06:03.560Z,69.43
2023-03-24T07:08:38.201Z,68.94
2023-03-24T07:11:09.945Z,69.42
2023-03-24T07:13:39.986Z,68.30
2023-03-24T07:16:08.813Z,69.06
2023-03-24T07:18:38.718Z,67.77
2023-03-24T07:21:07.893Z,68.16
2023-03-24T07:23:36.700Z,67.12
2023-03-24T07:26:10.146Z,68.43
2023-03-24T07:28:49.990Z,69.14
2023-03-24T07:31:38.200Z,70.05
2023-03-24T07:34:09.197Z,69.79
2023-03-24T07:36:38.841Z,68.95
2023-03-24T07:39:09.947Z,67.25
2023-03-24T07:41:38.044Z,65.82
2023-03-24T07:44:14.856Z,64.06
2023-03-24T07:46:49.458Z,64.72
2023-03-24T07:49:19.872Z,65.65
2023-03-24T07:52:09.165Z,65.89
2023-03-24T07:54:39.158Z,64.15
2023-03-24T07:57:09.650Z,62.94
2023-03-24T07:59:38.711Z,63.49
2023-03-24T08:02:21.307Z,62.69
2023-03-24T08:05:15.534Z,62.30
2023-03-24T08:07:44.777Z,59.87
2023-03-24T08:10:15.198Z,59.13
2023-03-24T08:12:42.437Z,58.72
2023-03-24T08:15:10.195Z,57.94
2023-03-24T08:17:37.673Z,59.30
2023-03-24T08:20:08.422Z,58.34
2023-03-24T08:22:37.890Z,56.34
2023-03-24T08:25:06.614Z,54.90
2023-03-24T08:27:34.170Z,54.21
2023-03-24T08:30:01.473Z,52.99
2023-03-24T08:32:28.817Z,50.50
2023-03-24T08:34:58.268Z,46.78
2023-03-24T08:37:25.504Z,46.49
2023-03-24T08:39:53.177Z,45.87
2023-03-24T08:42:20.623Z,44.43
2023-03-24T08:44:47.966Z,46.13
2023-03-24T08:47:15.228Z,44.86
2023-03-24T08:49:42.573Z,42.71
2023-03-24T08:52:09.832Z,42.88
2023-03-24T08:54:37.218Z,43.48
2023-03-24T08:57:04.569Z,43.58
2023-03-24T08:59:31.883Z,41.07
2023-03-24T09:01:59.251Z,41.92
2023-03-24T09:04:26.636Z,42.11
2023-03-24T09:07:02.296Z,42.32
2023-03-24T09:09:31.081Z,43.83
2023-03-24T09:11:58.592Z,43.83
2023-03-24T09:14:25.850Z,46.85
2023-03-24T09:16:53.160Z,46.93
2023-03-24T09:19:20.602Z,44.36
2023-03-24T09:21:49.175Z,45.11
2023-03-24T09:24:16.522Z,44.48
2023-03-24T09:26:43.979Z,43.94
2023-03-24T09:29:12.023Z,43.86
2023-03-24T09:31:39.235Z,41.81
2023-03-24T09:34:06.667Z,42.73
2023-03-24T09:36:33.911Z,40.31
2023-03-24T09:39:01.124Z,41.27
2023-03-24T09:41:32.544Z,42.40
2023-03-24T09:44:12.909Z,43.49
2023-03-24T09:47:01.056Z,41.72
2023-03-24T09:49:33.179Z,41.92
2023-03-24T09:52:12.249Z,39.94
2023-03-24T09:54:49.858Z,39.15
2023-03-24T09:57:23.380Z,38.36
2023-03-24T09:59:51.150Z,37.14
2023-03-24T10:02:21.610Z,35.95
2023-03-24T10:04:50.523Z,34.56
2023-03-24T10:07:43.587Z,33.55
2023-03-24T10:10:36.742Z,31.54
2023-03-24T10:13:22.629Z,31.49
2023-03-24T10:16:04.887Z,30.51
2023-03-24T10:18:52.093Z,29.00
2023-03-24T10:21:32.434Z,26.74
2023-03-24T10:24:19.378Z,26.56
2023-03-24T10:27:19.976Z,30.04
2023-03-24T10:29:49.854Z,30.46
2023-03-24T10:32:22.582Z,31.25
2023-03-24T10:35:09.135Z,32.22
2023-03-24T10:37:37.314Z,33.54
2023-03-24T10:40:16.760Z,34.93
2023-03-24T10:42:48.943Z,35.62
2023-03-24T10:45:35.069Z,34.25
2023-03-24T10:48:04.415Z,34.74
2023-03-24T10:50:35.916Z,35.24
2023-03-24T10:53:17.012Z,35.59
2023-03-24T10:55:44.918Z,35.34
2023-03-24T10:58:42.142Z,31.92
2023-03-24T11:01:38.604Z,33.15
2023-03-24T11:04:07.397Z,32.80
2023-03-24T11:06:35.192Z,32.49
2023-03-24T11:09:21.653Z,34.91
2023-03-24T11:11:50.848Z,34.21
2023-03-24T11:14:25.915Z,33.10
2023-03-24T11:17:02.873Z,32.37
2023-03-24T11:19:32.698Z,33.05
2023-03-24T11:22:05.753Z,33.79
2023-03-24T11:24:38.201Z,33.22
2023-03-24T11:27:06.158Z,32.79
2023-03-24T11:29:38.684Z,34.36
2023-03-24T11:32:22.292Z,33.74
2023-03-24T11:34:59.816Z,34.16
2023-03-24T11:37:33.438Z,34.41
2023-03-24T11:40:24.602Z,34.24
2023-03-24T11:43:03.564Z,34.85
2023-03-24T11:45:41.789Z,34.60
2023-03-24T11:48:22.371Z,34.93
2023-03-24T11:50:51.750Z,34.89
2023-03-24T11:53:24.961Z,34.66
2023-03-24T11:56:23.328Z,34.85
2023-03-24T11:59:30.167Z,34.22
2023-03-24T12:02:33.211Z,35.57
2023-03-24T12:05:17.066Z,35.04
2023-03-24T12:07:58.279Z,35.64
2023-03-24T12:10:31.500Z,34.93
2023-03-24T12:13:32.711Z,34.70
2023-03-24T12:16:17.367Z,35.32
2023-03-24T12:19:37.528Z,35.99
2023-03-24T12:22:43.876Z,35.83
2023-03-24T12:25:41.445Z,36.46
2023-03-24T12:28:11.565Z,35.92
2023-03-24T12:31:03.478Z,35.66
2023-03-24T12:34:13.150Z,35.29
2023-03-24T12:36:45.973Z,35.75
2023-03-24T12:39:24.350Z,35.71
2023-03-24T12:42:16.677Z,34.94
2023-03-24T12:45:05.620Z,34.21
2023-03-24T12:48:00.495Z,34.45
2023-03-24T12:50:51.051Z,34.15
2023-03-24T12:53:59.663Z,35.14
2023-03-24T12:56:53.782Z,33.64
2023-03-24T12:59:44.232Z,34.64
2023-03-24T13:02:32.774Z,34.32
2023-03-24T13:05:08.925Z,34.08
2023-03-24T13:07:44.036Z,34.58
2023-03-24T13:10:28.008Z,35.19
2023-03-24T13:13:18.460Z,36.06
2023-03-24T13:15:56.416Z,34.59
2023-03-24T13:18:51.190Z,35.54
2023-03-24T13:21:26.049Z,34.79
2023-03-24T13:24:14.998Z,35.11
2023-03-24T13:27:10.674Z,35.69
2023-03-24T13:30:13.980Z,35.34
2023-03-24T13:32:55.624Z,35.85
2023-03-24T13:35:42.962Z,35.76
2023-03-24T13:38:27.026Z,36.24
2023-03-24T13:40:56.310Z,36.09
2023-03-24T13:43:32.352Z,37.14
2023-03-24T13:46:07.782Z,36.44
2023-03-24T13:48:46.630Z,36.78
2023-03-24T13:51:22.368Z,37.22
2023-03-24T13:54:07.499Z,36.97
2023-03-24T13:56:42.671Z,37.99
2023-03-24T13:59:41.144Z,38.14
2023-03-24T14:02:42.592Z,39.02
2023-03-24T14:06:09.165Z,38.44
2023-03-24T14:08:52.010Z,38.96
2023-03-24T14:11:34.761Z,39.64
2023-03-24T14:14:21.059Z,40.01
2023-03-24T14:17:04.989Z,40.72
2023-03-24T14:19:39.179Z,40.67
2023-03-24T14:22:26.149Z,41.08
2023-03-24T14:25:15.367Z,41.28
2023-03-24T14:27:47.709Z,39.69
2023-03-24T14:30:38.000Z,39.85
2023-03-24T14:33:05.779Z,39.73
2023-03-24T14:35:49.181Z,39.97
2023-03-24T14:38:16.459Z,39.75
2023-03-24T14:40:48.755Z,39.34
2023-03-24T14:43:39.860Z,40.01
2023-03-24T14:46:35.886Z,40.66
2023-03-24T14:49:26.089Z,40.32
2023-03-24T14:52:03.644Z,40.79
2023-03-24T14:54:45.876Z,42.96
2023-03-24T14:57:27.400Z,43.01
2023-03-24T15:00:16.299Z,44.13
2023-03-24T15:03:12.130Z,44.07
2023-03-24T15:05:39.494Z,45.18
2023-03-24T15:08:18.866Z,45.39
2023-03-24T15:11:05.007Z,46.08
2023-03-24T15:13:39.941Z,45.39
2023-03-24T15:17:05.875Z,45.35
2023-03-24T15:19:33.796Z,45.56
2023-03-24T15:22:11.809Z,44.98
2023-03-24T15:24:41.951Z,45.89
2023-03-24T15:27:20.740Z,46.14
2023-03-24T15:29:57.618Z,45.71
2023-03-24T15:32:27.480Z,45.31
2023-03-24T15:35:05.680Z,46.18
2023-03-24T15:37:41.472Z,46.97
2023-03-24T15:40:30.549Z,46.37
2023-03-24T15:43:08.013Z,46.43
2023-03-24T15:45:44.263Z,45.73
2023-03-24T15:48:17.760Z,46.24
2023-03-24T15:51:03.103Z,47.66
2023-03-24T15:53:59.106Z,46.81
2023-03-24T15:56:31.868Z,46.93
2023-03-24T15:59:11.856Z,46.72
2023-03-24T16:01:43.254Z,47.40
2023-03-24T16:04:17.035Z,47.62
2023-03-24T16:06:52.257Z,49.09
2023-03-24T16:09:23.232Z,50.08
2023-03-24T16:11:50.448Z,50.97
2023-03-24T16:14:27.177Z,51.68
2023-03-24T16:17:02.197Z,53.47
2023-03-24T16:19:29.865Z,53.37
2023-03-24T16:21:57.926Z,53.64
2023-03-24T16:24:25.478Z,55.67
2023-03-24T16:26:52.810Z,55.78
2023-03-24T16:29:23.520Z,56.32
2023-03-24T16:31:53.493Z,57.25
2023-03-24T16:34:23.063Z,58.16
2023-03-24T16:36:54.867Z,59.21
2023-03-24T16:39:28.553Z,59.22
2023-03-24T16:41:56.800Z,59.64
2023-03-24T16:44:25.370Z,59.43
2023-03-24T16:46:54.492Z,59.81
2023-03-24T16:49:23.744Z,60.29
2023-03-24T16:51:52.911Z,60.44
2023-03-24T16:54:21.121Z,61.12
2023-03-24T16:56:48.726Z,61.31
2023-03-24T16:59:16.192Z,60.74
2023-03-24T17:01:46.352Z,60.69
2023-03-24T17:04:20.243Z,61.64
2023-03-24T17:06:53.487Z,62.06
2023-03-24T17:09:21.829Z,61.93
2023-03-24T17:11:55.397Z,63.13
2023-03-24T17:14:23.167Z,64.28
2023-03-24T17:16:53.094Z,65.27
2023-03-24T17:19:24.703Z,66.49
2023-03-24T17:22:06.894Z,67.28
2023-03-24T17:24:41.813Z,67.53
2023-03-24T17:27:19.032Z,67.35
2023-03-24T17:29:46.630Z,66.66
2023-03-24T17:32:13.956Z,66.96
2023-03-24T17:34:46.058Z,66.81
2023-03-24T17:37:13.379Z,66.85
2023-03-24T17:39:40.693Z,66.88
2023-03-24T17:42:08.137Z,66.34
2023-03-24T17:44:35.809Z,66.65
2023-03-24T17:47:03.273Z,66.34
2023-03-24T17:49:30.990Z,66.77
2023-03-24T17:51:58.267Z,66.28
2023-03-24T17:54:25.931Z,66.94
2023-03-24T17:56:53.131Z,66.83
2023-03-24T17:59:20.749Z,68.05
2023-03-24T18:01:48.067Z,67.67
2023-03-24T18:04:15.549Z,69.46
2023-03-24T18:06:42.915Z,70.10
2023-03-24T18:09:11.003Z,70.90
2023-03-24T18:11:38.671Z,70.79
2023-03-24T18:14:06.207Z,72.53
2023-03-24T18:16:35.682Z,72.35
2023-03-24T18:19:04.002Z,71.88
2023-03-24T18:21:31.701Z,72.66
2023-03-24T18:23:59.318Z,73.08
2023-03-24T18:26:27.013Z,72.57
2023-03-24T18:28:54.330Z,72.41
2023-03-24T18:31:25.893Z,71.96
2023-03-24T18:33:54.767Z,72.60
2023-03-24T18:36:26.676Z,72.20
2023-03-24T18:39:01.586Z,72.10
2023-03-24T18:41:30.097Z,71.42
2023-03-24T18:43:59.774Z,71.39
2023-03-24T18:46:27.530Z,70.75
2023-03-24T18:48:55.530Z,69.89
2023-03-24T18:51:25.653Z,69.25
2023-03-24T18:53:54.617Z,69.66
2023-03-24T18:56:23.280Z,68.94
2023-03-24T18:58:52.064Z,68.48
2023-03-24T19:01:26.244Z,69.99
2023-03-24T19:03:54.216Z,69.48
2023-03-24T19:06:26.282Z,69.29
2023-03-24T19:08:54.128Z,70.01
2023-03-24T19:11:21.527Z,69.88
2023-03-24T19:13:50.716Z,69.36
2023-03-24T19:16:20.230Z,69.00
2023-03-24T19:18:48.643Z,69.54
2023-03-24T19:21:17.240Z,68.82
2023-03-24T19:23:51.195Z,69.07
2023-03-24T19:26:20.715Z,69.16
2023-03-24T19:28:48.166Z,69.64
2023-03-24T19:31:18.537Z,69.10
2023-03-24T19:33:46.914Z,70.07
2023-03-24T19:36:15.654Z,70.08
2023-03-24T19:38:43.125Z,73.67
2023-03-24T19:41:14.902Z,79.93
2023-03-24T19:43:42.341Z,75.97
2023-03-24T19:46:09.645Z,81.25
2023-03-24T19:48:37.505Z,80.13
2023-03-24T19:51:05.200Z,79.70
2023-03-24T19:53:32.586Z,80.48
2023-03-24T19:56:01.300Z,88.71
2023-03-24T19:58:28.722Z,92.65
2023-03-24T20:00:56.788Z,91.11
2023-03-24T20:03:24.298Z,90.07
2023-03-24T20:05:52.081Z,87.25
2023-03-24T20:08:20.567Z,84.01
2023-03-24T20:10:47.929Z,81.40
2023-03-24T20:13:15.411Z,85.57
2023-03-24T20:15:42.915Z,86.55
2023-03-24T20:18:10.885Z,83.33
2023-03-24T20:20:38.181Z,84.37
2023-03-24T20:23:05.537Z,84.56
2023-03-24T20:25:33.059Z,81.94
2023-03-24T20:28:00.328Z,81.48
2023-03-24T20:30:32.695Z,82.10
2023-03-24T20:33:00.189Z,80.93
2023-03-24T20:35:28.249Z,81.67
2023-03-24T20:37:56.384Z,83.48
2023-03-24T20:40:24.787Z,81.93
2023-03-24T20:42:52.572Z,79.84
2023-03-24T20:45:20.002Z,78.62
2023-03-24T20:47:47.572Z,77.57
2023-03-24T20:50:14.890Z,77.43
2023-03-24T20:52:42.317Z,77.10
2023-03-24T20:55:11.519Z,76.95
2023-03-24T20:57:38.803Z,76.86
2023-03-24T21:00:14.047Z,77.60
2023-03-24T21:02:43.277Z,77.64
2023-03-24T21:05:10.934Z,77.99
2023-03-24T21:07:38.491Z,77.26
2023-03-24T21:10:07.167Z,77.26
2023-03-24T21:12:34.759Z,76.96
2023-03-24T21:15:02.347Z,77.40
2023-03-24T21:17:32.796Z,77.25
2023-03-24T21:20:07.206Z,76.58
2023-03-24T21:22:37.488Z,76.85
2023-03-24T21:25:06.461Z,78.26
2023-03-24T21:27:33.693Z,77.93
2023-03-24T21:30:01.005Z,77.45
2023-03-24T21:32:28.249Z,77.70
2023-03-24T21:34:55.764Z,77.69
2023-03-24T21:37:25.565Z,76.26
2023-03-24T21:39:52.760Z,76.49
2023-03-24T21:42:22.801Z,77.03
2023-03-24T21:44:50.858Z,76.46
2023-03-24T21:47:18.636Z,76.82
2023-03-24T21:49:48.976Z,76.00
2023-03-24T21:52:19.568Z,76.16
2023-03-24T21:54:46.679Z,76.51
2023-03-24T21:57:13.982Z,76.80
2023-03-24T21:59:41.232Z,77.69
2023-03-24T22:02:14.605Z,76.62
2023-03-24T22:04:41.946Z,77.29
2023-03-24T22:07:10.896Z,77.39
2023-03-24T22:09:38.075Z,78.14
2023-03-24T22:12:05.856Z,77.41
2023-03-24T22:14:33.096Z,79.91
2023-03-24T22:17:00.741Z,81.78
2023-03-24T22:19:28.500Z,83.56
2023-03-24T22:22:00.410Z,84.13
2023-03-24T22:24:29.956Z,82.96
2023-03-24T22:26:58.723Z,82.89
2023-03-24T22:29:26.782Z,82.71
2023-03-24T22:31:54.005Z,81.70
2023-03-24T22:34:21.405Z,80.38
2023-03-24T22:36:48.683Z,80.15
2023-03-24T22:39:16.050Z,80.99
2023-03-24T22:41:46.152Z,80.45
2023-03-24T22:44:13.628Z,80.12
2023-03-24T22:46:40.983Z,80.61
2023-03-24T22:49:08.468Z,80.55
2023-03-24T22:51:35.944Z,80.64
2023-03-24T22:54:03.100Z,80.15
2023-03-24T22:56:30.398Z,80.85
2023-03-24T22:58:57.794Z,81.45
2023-03-24T23:01:25.262Z,82.01
2023-03-24T23:03:52.470Z,82.07
2023-03-24T23:06:19.804Z,82.75
2023-03-24T23:08:47.038Z,82.22
2023-03-24T23:11:14.269Z,82.09
2023-03-24T23:13:41.857Z,83.22
2023-03-24T23:16:09.693Z,82.71
2023-03-24T23:18:40.989Z,84.42
2023-03-24T23:21:14.990Z,84.24
2023-03-24T23:23:43.889Z,84.62
2023-03-24T23:26:26.167Z,85.09
2023-03-24T23:28:54.568Z,85.73
2023-03-24T23:31:25.970Z,84.76
2023-03-24T23:33:56.956Z,85.71
2023-03-24T23:36:26.513Z,86.24
2023-03-24T23:38:54.762Z,86.09
2023-03-24T23:41:22.486Z,86.35
2023-03-24T23:43:53.736Z,87.33
2023-03-24T23:46:22.104Z,86.31
2023-03-24T23:48:49.580Z,87.62
2023-03-24T23:51:16.918Z,88.92
2023-03-24T23:53:44.546Z,90.21
2023-03-24T23:56:14.196Z,89.86
